createdAt,value
2022-08-27T00:01:00.499Z,1.07
2022-08-27T00:03:38.168Z,1.30
2022-08-27T00:06:10.623Z,2.47
2022-08-27T00:08:42.332Z,2.47
2022-08-27T00:11:14.634Z,1.27
2022-08-27T00:13:46.551Z,2.20
2022-08-27T00:19:36.045Z,1.43
2022-08-27T00:30:09.413Z,2.97
2022-08-27T00:32:48.005Z,1.77
2022-08-27T00:50:51.012Z,1.50
2022-08-27T00:53:32.063Z,1.20
2022-08-27T01:06:58.988Z,1.30
2022-08-27T01:12:26.598Z,1.87
2022-08-27T01:15:02.684Z,1.30
2022-08-27T01:17:48.818Z,2.33
2022-08-27T01:45:16.224Z,3.57
2022-08-27T01:47:56.545Z,3.40
2022-08-27T01:50:30.441Z,2.20
2022-08-27T01:53:27.207Z,1.50
2022-08-27T01:56:10.110Z,2.23
2022-08-27T02:04:54.965Z,5.07
2022-08-27T02:07:40.885Z,1.60
2022-08-27T02:10:15.346Z,1.67
2022-08-27T02:12:50.875Z,1.43
2022-08-27T02:15:24.063Z,1.60
2022-08-27T02:18:04.945Z,1.27
2022-08-27T02:20:43.211Z,1.07
2022-08-27T02:26:04.774Z,1.00
2022-08-27T02:38:19.660Z,1.23
2022-08-27T02:41:02.079Z,2.70
2022-08-27T02:46:24.702Z,2.30
2022-08-27T02:49:04.928Z,2.13
2022-08-27T03:00:00.717Z,1.90
2022-08-27T03:02:41.008Z,4.00
2022-08-27T03:05:15.951Z,2.50
2022-08-27T03:08:09.471Z,2.10
2022-08-27T03:10:41.761Z,1.27
2022-08-27T03:16:06.049Z,2.13
2022-08-27T03:18:46.762Z,0.90
2022-08-27T03:21:31.834Z,2.57
2022-08-27T03:24:11.813Z,1.53
2022-08-27T03:26:52.755Z,1.83
2022-08-27T03:29:29.610Z,2.27
2022-08-27T03:32:29.939Z,4.07
2022-08-27T03:35:04.047Z,1.53
2022-08-27T03:37:49.579Z,1.07
2022-08-27T03:40:24.961Z,1.37
2022-08-27T03:43:01.164Z,1.17
2022-08-27T03:45:48.505Z,2.13
2022-08-27T03:48:58.593Z,4.00
2022-08-27T03:51:49.806Z,4.00
2022-08-27T03:54:39.753Z,2.77
2022-08-27T03:57:25.150Z,1.37
2022-08-27T04:00:14.300Z,1.30
2022-08-27T04:02:48.604Z,2.43
2022-08-27T04:05:38.920Z,1.83
2022-08-27T04:08:10.441Z,1.63
2022-08-27T04:10:58.731Z,1.93
2022-08-27T04:13:40.756Z,2.20
2022-08-27T04:16:25.042Z,0.90
2022-08-27T04:19:00.857Z,1.00
2022-08-27T04:21:52.376Z,2.23
2022-08-27T04:50:13.645Z,1.20
2022-08-27T04:55:37.489Z,1.13
2022-08-27T04:58:18.347Z,1.47
2022-08-27T05:11:38.966Z,1.00
2022-08-27T05:14:14.665Z,0.70
2022-08-27T05:16:48.603Z,1.53
2022-08-27T05:19:22.852Z,2.10
2022-08-27T05:35:27.073Z,3.43
2022-08-27T05:44:30.187Z,2.53
2022-08-27T06:08:36.503Z,2.70
2022-08-27T06:11:09.810Z,2.57
2022-08-27T06:13:43.546Z,4.57
2022-08-27T06:19:05.794Z,3.37
2022-08-27T06:21:39.716Z,2.47
2022-08-27T06:24:12.460Z,2.30
2022-08-27T06:26:43.719Z,5.47
2022-08-27T06:29:16.495Z,1.90
2022-08-27T06:31:51.620Z,3.03
2022-08-27T06:34:23.076Z,3.00
2022-08-27T06:36:56.176Z,3.63
2022-08-27T06:39:28.475Z,2.63
2022-08-27T06:42:26.866Z,6.70
2022-08-27T06:45:02.735Z,2.97
2022-08-27T06:47:36.477Z,4.70
2022-08-27T06:50:08.927Z,2.40
2022-08-27T06:53:05.637Z,3.97
2022-08-27T06:55:48.320Z,3.13
2022-08-27T06:58:21.526Z,1.80
2022-08-27T07:00:52.647Z,2.33
2022-08-27T07:03:24.148Z,3.67
2022-08-27T07:05:55.525Z,3.43
2022-08-27T07:08:29.316Z,4.40
2022-08-27T07:11:01.624Z,1.30
2022-08-27T07:13:55.862Z,2.80
2022-08-27T07:16:41.147Z,1.53
2022-08-27T07:19:12.488Z,3.60
2022-08-27T07:21:43.706Z,1.20
2022-08-27T07:24:17.348Z,3.80
2022-08-27T07:26:48.773Z,2.80
2022-08-27T07:29:20.013Z,1.73
2022-08-27T07:31:51.523Z,3.37
2022-08-27T07:34:23.419Z,1.80
2022-08-27T07:36:55.736Z,4.40
2022-08-27T07:39:29.325Z,2.07
2022-08-27T07:42:18.105Z,4.57
2022-08-27T07:44:51.071Z,2.17
2022-08-27T07:47:22.735Z,4.07
2022-08-27T07:49:56.078Z,1.70
2022-08-27T07:52:29.039Z,3.07
2022-08-27T07:55:03.117Z,3.93
2022-08-27T07:57:35.436Z,2.47
2022-08-27T08:00:07.296Z,3.70
2022-08-27T08:02:38.302Z,2.30
2022-08-27T08:05:11.126Z,3.30
2022-08-27T08:07:42.935Z,4.07
2022-08-27T08:10:16.372Z,4.63
2022-08-27T08:12:47.318Z,1.83
2022-08-27T08:15:19.809Z,4.00
2022-08-27T08:17:51.620Z,5.17
2022-08-27T08:20:36.006Z,2.57
2022-08-27T08:23:15.395Z,2.70
2022-08-27T08:25:50.008Z,2.93
2022-08-27T08:28:21.822Z,3.50
2022-08-27T08:30:54.606Z,3.17
2022-08-27T08:33:26.052Z,1.97
2022-08-27T08:35:57.834Z,2.47
2022-08-27T08:38:29.323Z,2.77
2022-08-27T08:41:06.766Z,1.87
2022-08-27T08:43:41.615Z,3.13
2022-08-27T08:46:23.251Z,1.27
2022-08-27T08:49:00.933Z,1.87
2022-08-27T08:51:42.002Z,1.60
2022-08-27T08:54:18.968Z,1.60
2022-08-27T08:56:59.411Z,3.27
2022-08-27T08:59:36.903Z,1.57
2022-08-27T09:02:13.600Z,2.20
2022-08-27T09:04:46.152Z,2.97
2022-08-27T09:07:24.515Z,2.07
2022-08-27T09:10:02.543Z,1.83
2022-08-27T09:12:37.142Z,2.90
2022-08-27T09:15:16.011Z,2.73
2022-08-27T09:17:48.802Z,3.77
2022-08-27T09:20:25.677Z,3.53
2022-08-27T09:23:14.940Z,3.57
2022-08-27T09:25:46.397Z,2.17
2022-08-27T09:28:41.568Z,4.40
2022-08-27T09:31:15.706Z,2.57
2022-08-27T09:33:56.704Z,3.10
2022-08-27T09:36:31.448Z,2.50
2022-08-27T09:39:05.669Z,4.73
2022-08-27T09:41:47.041Z,3.90
2022-08-27T09:44:23.981Z,2.17
2022-08-27T09:47:00.903Z,3.70
2022-08-27T09:49:35.791Z,3.70
2022-08-27T09:52:08.862Z,5.30
2022-08-27T09:54:48.315Z,2.77
2022-08-27T09:57:35.220Z,3.53
2022-08-27T10:00:17.254Z,1.77
2022-08-27T10:02:56.205Z,3.80
2022-08-27T10:05:32.226Z,2.20
2022-08-27T10:08:06.690Z,1.80
2022-08-27T10:10:48.913Z,3.57
2022-08-27T10:13:23.273Z,1.83
2022-08-27T10:16:23.424Z,2.10
2022-08-27T10:19:02.663Z,3.40
2022-08-27T10:21:44.960Z,1.97
2022-08-27T10:24:24.886Z,2.30
2022-08-27T10:27:17.383Z,4.20
2022-08-27T10:29:53.601Z,2.30
2022-08-27T10:32:41.734Z,1.27
2022-08-27T10:35:19.399Z,3.77
2022-08-27T10:38:02.712Z,4.13
2022-08-27T10:40:38.178Z,1.77
2022-08-27T10:43:29.240Z,4.60
2022-08-27T10:46:09.474Z,1.93
2022-08-27T10:48:48.921Z,2.10
2022-08-27T10:51:26.824Z,2.93
2022-08-27T10:54:07.449Z,2.60
2022-08-27T10:56:45.675Z,2.57
2022-08-27T10:59:28.310Z,2.53
2022-08-27T11:02:10.169Z,2.87
2022-08-27T11:04:48.792Z,1.30
2022-08-27T11:07:26.401Z,1.27
2022-08-27T11:10:02.391Z,2.53
2022-08-27T11:12:38.448Z,2.10
2022-08-27T11:15:14.059Z,1.70
2022-08-27T11:17:51.001Z,0.93
2022-08-27T11:20:28.801Z,3.83
2022-08-27T11:23:04.158Z,2.17
2022-08-27T11:25:47.859Z,3.27
2022-08-27T11:28:21.071Z,2.87
2022-08-27T11:31:09.866Z,3.27
2022-08-27T11:33:47.535Z,4.37
2022-08-27T11:36:54.392Z,4.23
2022-08-27T11:39:51.994Z,2.93
2022-08-27T11:42:37.195Z,4.17
2022-08-27T11:45:12.790Z,5.83
2022-08-27T11:47:54.305Z,5.93
2022-08-27T11:50:27.470Z,3.77
2022-08-27T11:53:03.031Z,2.00
2022-08-27T11:55:39.482Z,3.30
2022-08-27T11:58:16.314Z,4.43
2022-08-27T12:00:48.087Z,3.20
2022-08-27T12:03:29.755Z,6.47
2022-08-27T12:06:21.760Z,3.00
2022-08-27T12:08:53.741Z,3.30
2022-08-27T12:11:58.393Z,2.97
2022-08-27T12:14:44.128Z,6.00
2022-08-27T12:17:27.363Z,5.83
2022-08-27T12:20:12.082Z,4.73
2022-08-27T12:23:15.984Z,5.67
2022-08-27T12:25:58.324Z,6.13
2022-08-27T12:28:32.156Z,5.70
2022-08-27T12:31:06.151Z,9.23
2022-08-27T12:33:42.908Z,7.43
2022-08-27T12:36:19.432Z,10.80
2022-08-27T12:39:01.067Z,10.43
2022-08-27T12:41:44.595Z,9.13
2022-08-27T12:44:26.060Z,10.33
2022-08-27T12:47:04.668Z,12.43
2022-08-27T12:49:39.715Z,9.87
2022-08-27T12:52:23.800Z,11.43
2022-08-27T12:55:05.522Z,12.90
2022-08-27T12:57:45.039Z,20.03
2022-08-27T13:00:24.163Z,9.17
2022-08-27T13:03:23.202Z,10.87
2022-08-27T13:05:57.999Z,8.97
2022-08-27T13:08:32.805Z,14.40
2022-08-27T13:11:14.072Z,11.53
2022-08-27T13:13:46.045Z,14.40
2022-08-27T13:16:21.548Z,15.17
2022-08-27T13:18:54.448Z,10.40
2022-08-27T13:21:29.132Z,13.10
2022-08-27T13:24:03.049Z,13.17
2022-08-27T13:26:38.668Z,18.37
2022-08-27T13:29:11.653Z,11.03
2022-08-27T13:31:45.087Z,11.47
2022-08-27T13:34:22.233Z,14.00
2022-08-27T13:37:01.509Z,14.27
2022-08-27T13:39:33.078Z,7.90
2022-08-27T13:42:06.070Z,12.43
2022-08-27T13:44:39.862Z,12.20
2022-08-27T13:47:20.033Z,10.43
2022-08-27T13:49:51.723Z,11.23
2022-08-27T13:52:30.389Z,16.80
2022-08-27T13:55:06.985Z,15.57
2022-08-27T13:57:46.817Z,17.10
2022-08-27T14:00:20.511Z,11.43
2022-08-27T14:02:55.541Z,12.80
2022-08-27T14:05:34.912Z,14.57
2022-08-27T14:08:16.183Z,11.53
2022-08-27T14:10:51.155Z,14.50
2022-08-27T14:13:27.192Z,14.83
2022-08-27T14:16:00.591Z,11.47
2022-08-27T14:18:58.402Z,12.80
2022-08-27T14:21:27.318Z,18.63
2022-08-27T14:23:59.258Z,16.80
2022-08-27T14:26:30.640Z,11.83
2022-08-27T14:29:02.324Z,11.17
2022-08-27T14:31:34.127Z,12.23
2022-08-27T14:34:07.976Z,9.73
2022-08-27T14:36:41.795Z,10.27
2022-08-27T14:39:15.498Z,12.17
2022-08-27T14:41:47.827Z,14.83
2022-08-27T14:44:19.220Z,10.97
2022-08-27T14:46:50.579Z,14.73
2022-08-27T14:49:30.316Z,12.40
2022-08-27T14:52:01.879Z,16.60
2022-08-27T14:54:36.392Z,12.27
2022-08-27T14:57:09.786Z,14.57
2022-08-27T15:05:15.595Z,17.00
2022-08-27T15:07:47.497Z,11.67
2022-08-27T15:10:18.990Z,13.70
2022-08-27T15:12:50.137Z,12.80
2022-08-27T15:15:22.070Z,11.30
2022-08-27T15:17:56.697Z,12.00
2022-08-27T15:20:29.836Z,10.80
2022-08-27T15:23:07.618Z,11.10
2022-08-27T15:34:21.811Z,13.73
2022-08-27T15:37:02.903Z,14.60
2022-08-27T15:42:34.206Z,8.40
2022-08-27T15:45:12.415Z,12.37
2022-08-27T15:47:47.905Z,9.97
2022-08-27T15:50:20.821Z,12.83
2022-08-27T15:52:54.312Z,13.67
2022-08-27T15:55:34.879Z,10.67
2022-08-27T15:58:08.187Z,13.27
2022-08-27T16:00:42.958Z,11.47
2022-08-27T16:03:16.774Z,11.37
2022-08-27T16:05:51.151Z,10.83
2022-08-27T16:14:29.563Z,15.60
2022-08-27T16:19:56.673Z,13.10
2022-08-27T16:22:30.408Z,14.10
2022-08-27T16:30:33.614Z,11.97
2022-08-27T16:39:13.159Z,10.77
2022-08-27T16:41:57.602Z,8.87
2022-08-27T16:47:53.183Z,12.63
2022-08-27T16:50:35.310Z,15.97
2022-08-27T17:01:13.467Z,10.50
2022-08-27T17:04:07.344Z,12.97
2022-08-27T17:06:39.792Z,8.80
2022-08-27T17:09:11.197Z,11.60
2022-08-27T17:11:44.966Z,13.67
2022-08-27T17:14:16.570Z,12.87
2022-08-27T17:16:50.642Z,11.77
2022-08-27T17:19:23.155Z,12.87
2022-08-27T17:21:55.795Z,11.43
2022-08-27T17:24:27.076Z,10.70
2022-08-27T17:26:59.037Z,6.00
2022-08-27T17:29:30.066Z,8.87
2022-08-27T17:32:05.231Z,9.07
2022-08-27T17:34:36.160Z,12.27
2022-08-27T17:37:07.528Z,13.67
2022-08-27T17:39:40.457Z,9.93
2022-08-27T17:42:12.007Z,13.80
2022-08-27T17:44:43.314Z,10.30
2022-08-27T17:47:17.453Z,12.00
2022-08-27T17:49:49.074Z,13.33
2022-08-27T17:52:20.470Z,8.57
2022-08-27T17:54:55.314Z,10.37
2022-08-27T17:57:28.550Z,8.70
2022-08-27T18:00:04.625Z,10.90
2022-08-27T18:02:42.000Z,14.50
2022-08-27T18:05:15.358Z,11.83
2022-08-27T18:07:47.246Z,10.53
2022-08-27T18:10:21.324Z,7.43
2022-08-27T18:12:53.992Z,8.73
2022-08-27T18:15:27.769Z,11.13
2022-08-27T18:18:03.084Z,10.23
2022-08-27T18:20:37.295Z,10.47
2022-08-27T18:23:14.147Z,9.03
2022-08-27T18:25:47.343Z,11.17
2022-08-27T18:28:24.025Z,7.33
2022-08-27T18:30:55.710Z,10.87
2022-08-27T18:33:29.472Z,8.60
2022-08-27T18:36:00.506Z,15.07
2022-08-27T18:38:32.242Z,10.40
2022-08-27T18:41:04.204Z,11.00
2022-08-27T18:43:39.833Z,9.40
2022-08-27T18:46:11.364Z,8.90
2022-08-27T18:48:45.730Z,9.23
2022-08-27T18:51:18.689Z,10.73
2022-08-27T18:53:51.910Z,11.90
2022-08-27T18:56:23.627Z,9.90
2022-08-27T18:58:55.436Z,9.07
2022-08-27T19:01:30.332Z,8.10
2022-08-27T19:04:03.866Z,7.30
2022-08-27T19:06:35.474Z,13.53
2022-08-27T19:09:07.211Z,8.50
2022-08-27T19:11:38.398Z,10.27
2022-08-27T19:14:09.428Z,12.53
2022-08-27T19:16:46.284Z,9.07
2022-08-27T19:19:21.788Z,7.33
2022-08-27T19:21:53.495Z,10.07
2022-08-27T19:24:26.050Z,10.50
2022-08-27T19:26:58.325Z,8.83
2022-08-27T19:29:29.591Z,14.67
2022-08-27T19:32:00.929Z,8.93
2022-08-27T19:34:34.564Z,11.63
2022-08-27T19:37:07.617Z,8.17
2022-08-27T19:39:41.250Z,9.97
2022-08-27T19:42:14.042Z,7.90
2022-08-27T19:44:46.500Z,10.13
2022-08-27T19:47:21.633Z,9.53
2022-08-27T19:49:59.309Z,7.70
2022-08-27T19:52:30.416Z,7.47
2022-08-27T19:55:13.710Z,9.60
2022-08-27T19:57:47.060Z,10.30
2022-08-27T20:00:21.342Z,7.90
2022-08-27T20:02:52.474Z,7.93
2022-08-27T20:05:27.304Z,12.10
2022-08-27T20:07:59.025Z,9.53
2022-08-27T20:10:36.725Z,5.23
2022-08-27T20:13:09.105Z,11.90
2022-08-27T20:15:41.714Z,11.70
2022-08-27T20:18:15.551Z,10.43
2022-08-27T20:20:49.193Z,8.87
2022-08-27T20:23:22.159Z,10.63
2022-08-27T20:26:01.224Z,8.40
2022-08-27T20:28:40.842Z,11.57
2022-08-27T20:31:12.317Z,9.93
2022-08-27T20:33:44.440Z,7.43
2022-08-27T20:36:17.983Z,7.70
2022-08-27T20:38:49.260Z,8.83
2022-08-27T20:41:20.633Z,11.47
2022-08-27T20:43:51.885Z,7.03
2022-08-27T20:46:28.536Z,9.20
2022-08-27T20:49:01.186Z,14.00
2022-08-27T20:51:53.486Z,7.60
2022-08-27T20:54:26.442Z,7.20
2022-08-27T20:56:58.480Z,7.30
2022-08-27T20:59:46.427Z,7.70
2022-08-27T21:02:22.884Z,7.80
2022-08-27T21:04:55.186Z,10.80
2022-08-27T21:07:29.262Z,8.63
2022-08-27T21:10:01.045Z,7.73
2022-08-27T21:12:35.190Z,7.10
2022-08-27T21:15:08.174Z,7.10
2022-08-27T21:17:39.465Z,8.37
2022-08-27T21:20:13.665Z,7.07
2022-08-27T21:22:48.392Z,8.10
2022-08-27T21:25:19.465Z,9.83
2022-08-27T21:27:51.026Z,6.57
2022-08-27T21:30:23.446Z,6.50
2022-08-27T21:32:56.662Z,8.10
2022-08-27T21:35:30.743Z,8.97
2022-08-27T21:38:06.178Z,7.57
2022-08-27T21:40:37.089Z,6.67
2022-08-27T21:43:08.850Z,8.30
2022-08-27T21:45:42.400Z,7.40
2022-08-27T21:48:13.460Z,7.50
2022-08-27T21:50:45.196Z,5.30
2022-08-27T21:53:19.406Z,6.77
2022-08-27T21:56:11.010Z,5.63
2022-08-27T21:58:44.356Z,8.17
2022-08-27T22:01:15.939Z,9.37
2022-08-27T22:03:50.401Z,8.00
2022-08-27T22:06:22.214Z,7.87
2022-08-27T22:08:55.388Z,8.47
2022-08-27T22:11:26.665Z,8.00
2022-08-27T22:14:00.255Z,9.00
2022-08-27T22:16:32.587Z,9.73
2022-08-27T22:19:04.439Z,9.27
2022-08-27T22:21:36.167Z,12.27
2022-08-27T22:24:10.444Z,9.37
2022-08-27T22:26:41.966Z,10.10
2022-08-27T22:29:16.337Z,8.50
2022-08-27T22:31:48.358Z,8.50
2022-08-27T22:34:23.403Z,7.20
2022-08-27T22:36:54.878Z,7.83
2022-08-27T22:39:27.889Z,7.60
2022-08-27T22:42:00.453Z,6.63
2022-08-27T22:44:31.691Z,9.67
2022-08-27T22:47:03.269Z,8.07
2022-08-27T22:49:34.351Z,9.13
2022-08-27T22:52:06.919Z,9.80
2022-08-27T22:54:41.297Z,8.07
2022-08-27T22:57:12.726Z,7.80
2022-08-27T22:59:44.236Z,8.60
2022-08-27T23:02:20.152Z,9.20
2022-08-27T23:04:55.857Z,6.97
2022-08-27T23:07:27.458Z,7.40
2022-08-27T23:10:02.439Z,6.40
2022-08-27T23:12:37.286Z,8.03
2022-08-27T23:15:11.709Z,9.33
2022-08-27T23:17:44.633Z,7.17
2022-08-27T23:20:16.873Z,5.43
2022-08-27T23:22:49.172Z,7.10
2022-08-27T23:25:41.276Z,6.63
2022-08-27T23:28:17.357Z,5.17
2022-08-27T23:30:49.516Z,12.77
2022-08-27T23:33:21.061Z,8.77
2022-08-27T23:35:52.944Z,5.70
2022-08-27T23:38:25.566Z,7.03
2022-08-27T23:41:00.273Z,9.90
2022-08-27T23:43:32.475Z,7.97
2022-08-27T23:46:04.691Z,7.53
2022-08-27T23:48:38.095Z,9.73
2022-08-27T23:51:10.556Z,7.53
2022-08-27T23:53:42.590Z,9.13
2022-08-27T23:56:16.242Z,9.40
2022-08-27T23:58:50.404Z,8.13
